createdAt,value
2018-06-05T00:01:28.269Z,17.30
2018-06-05T00:03:58.736Z,15.57
2018-06-05T00:06:29.334Z,11.63
2018-06-05T00:08:59.903Z,12.17
2018-06-05T00:11:30.553Z,11.87
2018-06-05T00:14:01.214Z,10.83
2018-06-05T00:16:31.728Z,12.90
2018-06-05T00:19:02.085Z,12.40
2018-06-05T00:21:32.773Z,11.47
2018-06-05T00:24:03.391Z,11.93
2018-06-05T00:26:34.029Z,13.60
2018-06-05T00:29:04.382Z,13.53
2018-06-05T00:31:35.066Z,13.60
2018-06-05T00:34:05.463Z,12.33
2018-06-05T00:36:35.884Z,13.37
2018-06-05T00:39:07.710Z,13.70
2018-06-05T00:41:38.148Z,16.30
2018-06-05T00:44:08.835Z,12.47
2018-06-05T00:46:39.692Z,15.87
2018-06-05T00:49:10.185Z,13.00
2018-06-05T00:51:51.707Z,13.10
2018-06-05T00:54:22.442Z,13.10
2018-06-05T00:56:52.900Z,12.63
2018-06-05T00:59:23.752Z,14.43
2018-06-05T01:01:54.319Z,13.57
2018-06-05T01:04:25.165Z,12.10
2018-06-05T01:06:55.722Z,12.10
2018-06-05T01:09:26.471Z,11.27
2018-06-05T01:11:57.126Z,11.07
2018-06-05T01:14:27.618Z,11.97
2018-06-05T01:16:58.162Z,11.67
2018-06-05T01:19:28.699Z,11.30
2018-06-05T01:21:59.277Z,10.97
2018-06-05T01:24:30.025Z,12.53
2018-06-05T01:27:00.474Z,13.40
2018-06-05T01:29:31.138Z,11.77
2018-06-05T01:32:01.591Z,13.00
2018-06-05T01:34:32.255Z,12.23
2018-06-05T01:37:02.769Z,12.20
2018-06-05T01:39:33.848Z,12.70
2018-06-05T01:42:04.386Z,12.60
2018-06-05T01:44:34.970Z,12.33
2018-06-05T01:47:05.291Z,13.13
2018-06-05T01:49:41.694Z,11.77
2018-06-05T01:52:12.262Z,11.00
2018-06-05T01:54:42.748Z,9.63
2018-06-05T01:57:13.117Z,9.83
2018-06-05T01:59:43.545Z,10.43
2018-06-05T02:02:14.032Z,9.20
2018-06-05T02:04:44.541Z,9.13
2018-06-05T02:07:15.041Z,8.83
2018-06-05T02:09:45.463Z,9.50
2018-06-05T02:12:15.889Z,8.60
2018-06-05T02:14:46.294Z,8.20
2018-06-05T02:17:16.897Z,8.83
2018-06-05T02:19:47.344Z,8.40
2018-06-05T02:22:48.822Z,8.90
2018-06-05T02:25:19.408Z,10.17
2018-06-05T02:27:49.843Z,10.10
2018-06-05T02:30:20.449Z,9.60
2018-06-05T02:32:50.989Z,9.03
2018-06-05T02:35:21.395Z,8.93
2018-06-05T02:37:52.061Z,10.90
2018-06-05T02:40:22.589Z,9.80
2018-06-05T02:42:53.259Z,9.20
2018-06-05T02:45:23.745Z,7.87
2018-06-05T02:47:54.290Z,8.47
2018-06-05T02:50:24.814Z,8.40
2018-06-05T02:52:55.173Z,8.63
2018-06-05T02:55:25.607Z,9.07
2018-06-05T02:57:56.078Z,9.40
2018-06-05T03:00:26.724Z,8.83
2018-06-05T03:02:57.381Z,9.10
2018-06-05T03:05:27.872Z,8.60
2018-06-05T03:07:58.333Z,9.00
2018-06-05T03:10:28.635Z,9.33
2018-06-05T03:12:59.257Z,9.27
2018-06-05T03:15:29.769Z,8.80
2018-06-05T03:18:00.204Z,8.27
2018-06-05T03:20:30.744Z,8.37
2018-06-05T03:23:01.189Z,9.07
2018-06-05T03:25:31.735Z,8.43
2018-06-05T03:28:02.317Z,7.50
2018-06-05T03:30:32.782Z,8.13
2018-06-05T03:33:03.233Z,7.90
2018-06-05T03:35:33.643Z,8.07
2018-06-05T03:38:04.058Z,8.50
2018-06-05T03:40:34.582Z,8.60
2018-06-05T03:43:05.845Z,9.67
2018-06-05T03:45:36.291Z,9.20
2018-06-05T03:48:06.939Z,9.73
2018-06-05T03:50:37.467Z,10.00
2018-06-05T03:53:08.745Z,11.60
2018-06-05T03:55:39.318Z,9.47
2018-06-05T03:58:09.779Z,9.43
2018-06-05T04:00:40.260Z,9.93
2018-06-05T04:03:10.672Z,9.97
2018-06-05T04:05:41.277Z,10.20
2018-06-05T04:08:11.772Z,10.47
2018-06-05T04:10:42.267Z,9.93
2018-06-05T04:13:12.849Z,9.70
2018-06-05T04:15:43.273Z,9.43
2018-06-05T04:18:13.901Z,9.83
2018-06-05T04:20:44.454Z,9.90
2018-06-05T04:23:15.020Z,10.17
2018-06-05T04:25:45.550Z,10.07
2018-06-05T04:28:15.953Z,9.90
2018-06-05T04:30:46.470Z,10.33
2018-06-05T04:33:16.805Z,9.30
2018-06-05T04:35:47.589Z,10.53
2018-06-05T04:38:18.999Z,10.87
2018-06-05T04:40:49.325Z,10.97
2018-06-05T04:43:19.832Z,12.13
2018-06-05T04:45:50.230Z,10.73
2018-06-05T04:48:20.861Z,11.03
2018-06-05T04:50:51.767Z,10.77
2018-06-05T04:53:22.013Z,11.87
2018-06-05T04:55:52.634Z,10.90
2018-06-05T04:58:23.004Z,11.73
2018-06-05T05:00:53.464Z,12.63
2018-06-05T05:03:23.981Z,12.80
2018-06-05T05:05:54.324Z,12.10
2018-06-05T05:08:24.723Z,12.00
2018-06-05T05:10:55.372Z,13.37
2018-06-05T05:13:25.694Z,13.30
2018-06-05T05:15:56.457Z,12.27
2018-06-05T05:18:26.843Z,12.60
2018-06-05T05:20:57.442Z,12.90
2018-06-05T05:23:27.754Z,14.43
2018-06-05T05:25:58.246Z,13.57
2018-06-05T05:28:28.872Z,13.80
2018-06-05T05:30:59.401Z,14.47
2018-06-05T05:33:29.925Z,13.53
2018-06-05T05:36:00.371Z,15.63
2018-06-05T05:38:30.938Z,14.03
2018-06-05T05:41:01.424Z,12.43
2018-06-05T05:43:31.887Z,13.73
2018-06-05T05:46:02.585Z,13.80
2018-06-05T05:48:32.972Z,16.10
2018-06-05T05:51:03.605Z,15.03
2018-06-05T05:53:33.910Z,17.00
2018-06-05T05:56:04.413Z,16.67
2018-06-05T05:58:34.874Z,16.13
2018-06-05T06:01:05.588Z,16.37
2018-06-05T06:03:36.452Z,17.07
2018-06-05T06:06:07.099Z,17.00
2018-06-05T06:08:37.755Z,17.27
2018-06-05T06:11:08.216Z,17.43
2018-06-05T06:13:38.618Z,18.53
2018-06-05T06:16:09.128Z,17.17
2018-06-05T06:18:39.576Z,18.37
2018-06-05T06:21:10.245Z,19.27
2018-06-05T06:23:40.912Z,19.20
2018-06-05T06:26:11.442Z,19.90
2018-06-05T06:28:42.131Z,19.47
2018-06-05T06:31:12.586Z,18.40
2018-06-05T06:33:42.966Z,17.53
2018-06-05T06:36:13.596Z,18.83
2018-06-05T06:48:30.419Z,20.77
2018-06-05T07:10:32.251Z,19.00
2018-06-05T07:39:05.626Z,13.47
2018-06-05T08:04:25.049Z,9.03
2018-06-05T08:26:27.010Z,8.00
2018-06-05T08:51:48.877Z,7.23
2018-06-05T09:13:53.014Z,5.77
2018-06-05T09:35:59.814Z,5.80
2018-06-05T09:58:01.691Z,4.90
2018-06-05T10:20:07.779Z,4.17
2018-06-05T10:42:20.077Z,4.13
2018-06-05T11:07:46.601Z,4.00
2018-06-05T11:36:22.835Z,4.47
2018-06-05T11:58:27.257Z,3.97
2018-06-05T12:20:28.922Z,3.80
2018-06-05T12:45:44.682Z,4.10
2018-06-05T13:11:00.917Z,3.63
2018-06-05T13:33:02.480Z,3.43
2018-06-05T13:58:19.437Z,3.67
2018-06-05T14:23:36.081Z,3.20
2018-06-05T14:52:09.341Z,3.07
2018-06-05T15:14:14.293Z,3.87
2018-06-05T15:36:18.948Z,3.70
2018-06-05T15:58:21.649Z,3.50
2018-06-05T16:20:23.784Z,3.47
2018-06-05T16:45:40.484Z,2.30
2018-06-05T17:07:41.903Z,3.80
2018-06-05T17:29:43.739Z,4.23
2018-06-05T17:51:45.621Z,4.03
2018-06-05T18:13:47.914Z,5.10
2018-06-05T18:35:48.903Z,4.90
2018-06-05T19:01:06.370Z,5.43
2018-06-05T19:29:37.811Z,5.00
2018-06-05T19:51:39.103Z,5.83
2018-06-05T20:13:40.195Z,5.10
2018-06-05T20:35:41.872Z,4.57
2018-06-05T21:04:14.540Z,4.87
2018-06-05T21:26:18.445Z,4.50
2018-06-05T21:48:20.114Z,5.20
2018-06-05T22:13:37.590Z,15.40
2018-06-05T22:35:39.011Z,6.03
2018-06-05T22:57:40.845Z,4.40
2018-06-05T23:00:11.531Z,7.57
2018-06-05T23:22:15.815Z,7.23
2018-06-05T23:44:18.400Z,7.47
